Decoded Metar for ULLI (ST. PETERSBURG in RUSSIA) (IATA:LED) | Meteo·Mobile Aviation Weather
aviador You're here:

ULLI Decoded Metar

ST. PETERSBURG in RUSSIA
Report Time2019-04-18 20:30:00
UTC Time2019-04-18 20:52:36
Flight Rules vfr VFR
WindVRB at 2 kt
Visibility9999 m
Phenomena:N/A
Clouds:N/A
Expected CloudBase > 2,400 ft AGL from Temp-Dew spread
CeilingNone
Temp02°C (ISA -13)
Dew Point-4°C (65% RH)
AAT-1.2°C
QNH1034 hPa
Density Alt-2,215 ft
Elevation13 ft
Report Wrong Elevation
Raw Report
ULLI 182030Z VRB01MPS CAVOK 02/M04 Q1034 R88/090060 NOSIG=

Extra information for ULLI:More info

Metar Taf Metar & Taf Last 4 Metars F.Rules Stats Wind Profile Meteogram Temp Stats Airport Information Weather charts Add Link Nearby VenuesMetar ALERT Operation Metar Decoded Social comments